sensor_id;sensor_type;location;lat;lon;timestamp;pressure;altitude;pressure_sealevel;temperature;humidity
63088;BME280;49173;43.164;27.786;2023-01-29T00:01:52;100704.38;;;0.62;81.25
63088;BME280;49173;43.164;27.786;2023-01-29T00:04:18;100708.88;;;0.52;81.10
63088;BME280;49173;43.164;27.786;2023-01-29T00:06:44;100712.47;;;0.42;81.66
63088;BME280;49173;43.164;27.786;2023-01-29T00:09:10;100716.81;;;0.48;81.84
63088;BME280;49173;43.164;27.786;2023-01-29T00:11:37;100713.31;;;0.47;81.15
63088;BME280;49173;43.164;27.786;2023-01-29T00:14:28;100721.31;;;0.38;81.20
63088;BME280;49173;43.164;27.786;2023-01-29T00:16:54;100722.16;;;0.42;81.47
63088;BME280;49173;43.164;27.786;2023-01-29T00:19:19;100714.22;;;0.45;82.21
63088;BME280;49173;43.164;27.786;2023-01-29T00:21:45;100716.84;;;0.49;81.34
63088;BME280;49173;43.164;27.786;2023-01-29T00:24:12;100722.97;;;0.51;80.83
63088;BME280;49173;43.164;27.786;2023-01-29T00:26:37;100719.47;;;0.49;81.23
63088;BME280;49173;43.164;27.786;2023-01-29T00:29:04;100722.91;;;0.56;81.30
63088;BME280;49173;43.164;27.786;2023-01-29T00:31:31;100713.16;;;0.67;80.93
63088;BME280;49173;43.164;27.786;2023-01-29T00:33:57;100724.69;;;0.55;79.90
63088;BME280;49173;43.164;27.786;2023-01-29T00:36:24;100731.75;;;0.53;80.31
63088;BME280;49173;43.164;27.786;2023-01-29T00:38:54;100730.03;;;0.51;80.32
63088;BME280;49173;43.164;27.786;2023-01-29T00:41:25;100723.03;;;0.44;80.77
63088;BME280;49173;43.164;27.786;2023-01-29T00:44:10;100730.03;;;0.51;80.52
63088;BME280;49173;43.164;27.786;2023-01-29T00:46:54;100733.53;;;0.48;81.02
63088;BME280;49173;43.164;27.786;2023-01-29T00:49:20;100736.13;;;0.56;81.62
63088;BME280;49173;43.164;27.786;2023-01-29T00:51:46;100731.69;;;0.61;80.96
63088;BME280;49173;43.164;27.786;2023-01-29T00:54:31;100731.69;;;0.64;81.08
63088;BME280;49173;43.164;27.786;2023-01-29T00:56:57;100731.69;;;0.64;80.55
63088;BME280;49173;43.164;27.786;2023-01-29T00:59:24;100733.44;;;0.62;80.34
63088;BME280;49173;43.164;27.786;2023-01-29T01:01:49;100737.78;;;0.69;80.60
63088;BME280;49173;43.164;27.786;2023-01-29T01:04:34;100742.16;;;0.72;80.12
63088;BME280;49173;43.164;27.786;2023-01-29T01:06:59;100734.19;;;0.76;79.54
63088;BME280;49173;43.164;27.786;2023-01-29T01:09:25;100738.50;;;0.87;79.59
63088;BME280;49173;43.164;27.786;2023-01-29T01:12:10;100734.00;;;0.96;79.81
63088;BME280;49173;43.164;27.786;2023-01-29T01:14:36;100736.63;;;0.98;79.45
63088;BME280;49173;43.164;27.786;2023-01-29T01:17:01;100741.00;;;1.02;79.23
63088;BME280;49173;43.164;27.786;2023-01-29T01:19:27;100744.53;;;1.01;78.67
63088;BME280;49173;43.164;27.786;2023-01-29T01:21:53;100741.91;;;0.98;78.50
63088;BME280;49173;43.164;27.786;2023-01-29T01:24:18;100738.34;;;1.02;78.85
63088;BME280;49173;43.164;27.786;2023-01-29T01:26:45;100734.81;;;1.06;78.33
63088;BME280;49173;43.164;27.786;2023-01-29T01:29:11;100750.63;;;1.09;78.72
63088;BME280;49173;43.164;27.786;2023-01-29T01:31:37;100750.69;;;1.01;77.86
63088;BME280;49173;43.164;27.786;2023-01-29T01:34:03;100744.53;;;1.01;78.10
63088;BME280;49173;43.164;27.786;2023-01-29T01:36:29;100770.00;;;1.09;78.96
63088;BME280;49173;43.164;27.786;2023-01-29T01:38:57;100759.53;;;0.97;78.48
63088;BME280;49173;43.164;27.786;2023-01-29T01:41:23;100756.91;;;0.99;78.79
63088;BME280;49173;43.164;27.786;2023-01-29T01:43:57;100752.41;;;1.07;79.27
63088;BME280;49173;43.164;27.786;2023-01-29T01:46:28;100759.44;;;1.05;77.59
63088;BME280;49173;43.164;27.786;2023-01-29T01:49:18;100762.31;;;0.85;77.86
63088;BME280;49173;43.164;27.786;2023-01-29T01:51:46;100758.81;;;0.80;77.95
63088;BME280;49173;43.164;27.786;2023-01-29T01:54:27;100773.75;;;0.84;77.95
63088;BME280;49173;43.164;27.786;2023-01-29T01:57:02;100772.03;;;0.77;77.94
63088;BME280;49173;43.164;27.786;2023-01-29T01:59:39;100777.28;;;0.81;78.33
63088;BME280;49173;43.164;27.786;2023-01-29T02:02:05;100775.56;;;0.79;77.73
63088;BME280;49173;43.164;27.786;2023-01-29T02:04:51;100770.41;;;0.65;78.51
63088;BME280;49173;43.164;27.786;2023-01-29T02:07:43;100776.63;;;0.57;79.34
63088;BME280;49173;43.164;27.786;2023-01-29T02:10:31;100775.69;;;0.65;79.56
63088;BME280;49173;43.164;27.786;2023-01-29T02:13:04;100767.66;;;0.76;79.13
63088;BME280;49173;43.164;27.786;2023-01-29T02:15:30;100773.75;;;0.84;79.20
63088;BME280;49173;43.164;27.786;2023-01-29T02:17:56;100774.59;;;0.88;78.97
63088;BME280;49173;43.164;27.786;2023-01-29T02:20:28;100774.56;;;0.94;78.68
63088;BME280;49173;43.164;27.786;2023-01-29T02:33:50;100775.69;;;0.64;77.82
63088;BME280;49173;43.164;27.786;2023-01-29T02:41:48;100779.28;;;0.57;78.46
63088;BME280;49173;43.164;27.786;2023-01-29T02:44:51;100785.41;;;0.55;77.51
63088;BME280;49173;43.164;27.786;2023-01-29T02:47:21;100774.91;;;0.51;77.97
63088;BME280;49173;43.164;27.786;2023-01-29T02:50:02;100780.22;;;0.46;77.88
63088;BME280;49173;43.164;27.786;2023-01-29T02:52:43;100785.50;;;0.45;77.18
63088;BME280;49173;43.164;27.786;2023-01-29T02:56:19;100775.88;;;0.35;78.45
63088;BME280;49173;43.164;27.786;2023-01-29T02:58:40;100774.94;;;0.45;78.22
63088;BME280;49173;43.164;27.786;2023-01-29T03:01:17;100789.88;;;0.50;78.18
63088;BME280;49173;43.164;27.786;2023-01-29T03:03:49;100780.22;;;0.42;77.57
63088;BME280;49173;43.164;27.786;2023-01-29T03:06:23;100782.03;;;0.35;77.94
63088;BME280;49173;43.164;27.786;2023-01-29T03:09:00;100780.22;;;0.45;78.74
63088;BME280;49173;43.164;27.786;2023-01-29T03:11:31;100787.38;;;0.31;77.72
63088;BME280;49173;43.164;27.786;2023-01-29T03:14:12;100788.28;;;0.20;77.79
63088;BME280;49173;43.164;27.786;2023-01-29T03:16:52;100783.03;;;0.22;78.54
63088;BME280;49173;43.164;27.786;2023-01-29T03:19:23;100784.81;;;0.18;78.49
63088;BME280;49173;43.164;27.786;2023-01-29T03:21:59;100799.72;;;0.25;78.50
63088;BME280;49173;43.164;27.786;2023-01-29T03:24:43;100785.66;;;0.20;78.36
63088;BME280;49173;43.164;27.786;2023-01-29T03:27:32;100783.94;;;0.16;78.67
63088;BME280;49173;43.164;27.786;2023-01-29T03:30:21;100791.00;;;0.14;78.54
63088;BME280;49173;43.164;27.786;2023-01-29T03:33:10;100798.88;;;0.19;78.68
63088;BME280;49173;43.164;27.786;2023-01-29T03:35:44;100793.63;;;0.14;78.59
63088;BME280;49173;43.164;27.786;2023-01-29T03:38:13;100790.97;;;0.17;78.88
63088;BME280;49173;43.164;27.786;2023-01-29T03:40:57;100803.25;;;0.24;78.98
63088;BME280;49173;43.164;27.786;2023-01-29T03:43:46;100800.53;;;0.38;79.93
63088;BME280;49173;43.164;27.786;2023-01-29T03:51:46;100804.06;;;0.36;80.23
63088;BME280;49173;43.164;27.786;2023-01-29T03:54:21;100799.56;;;0.48;79.82
63088;BME280;49173;43.164;27.786;2023-01-29T03:59:34;100799.53;;;0.53;78.38
63088;BME280;49173;43.164;27.786;2023-01-29T04:02:05;100804.84;;;0.51;79.03
63088;BME280;49173;43.164;27.786;2023-01-29T04:04:35;100815.41;;;0.50;78.03
63088;BME280;49173;43.164;27.786;2023-01-29T04:07:11;100818.06;;;0.45;78.75
63088;BME280;49173;43.164;27.786;2023-01-29T04:10:07;100818.03;;;0.48;79.19
63088;BME280;49173;43.164;27.786;2023-01-29T04:12:44;100816.31;;;0.41;78.93
63088;BME280;49173;43.164;27.786;2023-01-29T04:15:14;100825.06;;;0.52;79.38
63088;BME280;49173;43.164;27.786;2023-01-29T04:17:52;100825.94;;;0.53;78.46
63088;BME280;49173;43.164;27.786;2023-01-29T04:20:21;100815.34;;;0.56;78.85
63088;BME280;49173;43.164;27.786;2023-01-29T04:22:48;100825.00;;;0.65;78.56
63088;BME280;49173;43.164;27.786;2023-01-29T04:25:18;100824.13;;;0.61;78.58
63088;BME280;49173;43.164;27.786;2023-01-29T04:28:16;100826.72;;;0.67;78.25
63088;BME280;49173;43.164;27.786;2023-01-29T04:30:54;100824.06;;;0.72;78.38
63088;BME280;49173;43.164;27.786;2023-01-29T04:36:20;100828.53;;;0.59;77.80
63088;BME280;49173;43.164;27.786;2023-01-29T04:58:05;100828.59;;;0.51;76.96
63088;BME280;49173;43.164;27.786;2023-01-29T05:00:40;100833.91;;;0.47;78.11
63088;BME280;49173;43.164;27.786;2023-01-29T05:03:07;100834.81;;;0.40;77.28
63088;BME280;49173;43.164;27.786;2023-01-29T05:05:35;100827.03;;;0.18;78.60
63088;BME280;49173;43.164;27.786;2023-01-29T05:08:01;100833.19;;;0.17;78.59
63088;BME280;49173;43.164;27.786;2023-01-29T05:10:28;100834.09;;;0.12;79.23
63088;BME280;49173;43.164;27.786;2023-01-29T05:12:59;100840.28;;;0.09;79.90
63088;BME280;49173;43.164;27.786;2023-01-29T05:15:47;100833.25;;;0.10;80.05
63088;BME280;49173;43.164;27.786;2023-01-29T05:18:15;100836.72;;;0.12;80.21
63088;BME280;49173;43.164;27.786;2023-01-29T05:20:42;100841.13;;;0.13;79.99
63088;BME280;49173;43.164;27.786;2023-01-29T05:23:20;100835.81;;;0.19;80.29
63088;BME280;49173;43.164;27.786;2023-01-29T05:25:46;100842.03;;;0.10;80.43
63088;BME280;49173;43.164;27.786;2023-01-29T05:28:13;100837.59;;;0.12;80.44
63088;BME280;49173;43.164;27.786;2023-01-29T05:30:50;100851.72;;;0.08;80.45
63088;BME280;49173;43.164;27.786;2023-01-29T05:33:19;100835.00;;;0.11;80.28
63088;BME280;49173;43.164;27.786;2023-01-29T05:35:46;100848.16;;;0.15;80.46
63088;BME280;49173;43.164;27.786;2023-01-29T05:38:12;100846.41;;;0.16;80.01
63088;BME280;49173;43.164;27.786;2023-01-29T05:40:38;100852.56;;;0.16;79.68
63088;BME280;49173;43.164;27.786;2023-01-29T05:43:05;100840.22;;;0.21;79.18
63088;BME280;49173;43.164;27.786;2023-01-29T05:45:38;100856.91;;;0.23;79.34
63088;BME280;49173;43.164;27.786;2023-01-29T05:48:04;100851.66;;;0.19;79.75
63088;BME280;49173;43.164;27.786;2023-01-29T05:50:31;100859.63;;;0.14;79.80
63088;BME280;49173;43.164;27.786;2023-01-29T05:53:00;100857.81;;;0.19;79.21
63088;BME280;49173;43.164;27.786;2023-01-29T05:55:27;100861.34;;;0.21;79.40
63088;BME280;49173;43.164;27.786;2023-01-29T05:57:54;100881.56;;;0.22;79.41
63088;BME280;49173;43.164;27.786;2023-01-29T06:00:20;100878.00;;;0.28;78.70
63088;BME280;49173;43.164;27.786;2023-01-29T06:02:46;100867.44;;;0.28;79.45
63088;BME280;49173;43.164;27.786;2023-01-29T06:05:12;100878.91;;;0.29;79.68
63088;BME280;49173;43.164;27.786;2023-01-29T06:07:38;100897.38;;;0.29;79.99
63088;BME280;49173;43.164;27.786;2023-01-29T06:10:14;100904.41;;;0.28;79.96
63088;BME280;49173;43.164;27.786;2023-01-29T06:12:42;100900.91;;;0.23;80.35
63088;BME280;49173;43.164;27.786;2023-01-29T06:15:09;100894.75;;;0.25;81.02
63088;BME280;49173;43.164;27.786;2023-01-29T06:17:35;100904.41;;;0.31;81.46
63088;BME280;49173;43.164;27.786;2023-01-29T06:20:01;100891.22;;;0.20;81.39
63088;BME280;49173;43.164;27.786;2023-01-29T06:22:27;100907.97;;;0.19;81.56
63088;BME280;49173;43.164;27.786;2023-01-29T06:24:52;100900.91;;;0.23;81.47
63088;BME280;49173;43.164;27.786;2023-01-29T06:27:18;100907.06;;;0.20;81.55
63088;BME280;49173;43.164;27.786;2023-01-29T06:29:44;100904.44;;;0.22;81.31
63088;BME280;49173;43.164;27.786;2023-01-29T06:32:10;100910.56;;;0.25;81.37
63088;BME280;49173;43.164;27.786;2023-01-29T06:34:36;100921.16;;;0.22;81.01
63088;BME280;49173;43.164;27.786;2023-01-29T06:37:02;100910.59;;;0.19;81.20
63088;BME280;49173;43.164;27.786;2023-01-29T06:39:27;100917.59;;;0.33;80.41
63088;BME280;49173;43.164;27.786;2023-01-29T06:41:53;100916.69;;;0.37;80.54
63088;BME280;49173;43.164;27.786;2023-01-29T06:44:19;100920.19;;;0.39;80.45
63088;BME280;49173;43.164;27.786;2023-01-29T06:46:45;100931.59;;;0.47;79.07
63088;BME280;49173;43.164;27.786;2023-01-29T06:49:10;100919.25;;;0.52;79.09
63088;BME280;49173;43.164;27.786;2023-01-29T06:51:36;100912.19;;;0.54;78.57
63088;BME280;49173;43.164;27.786;2023-01-29T06:54:02;100916.56;;;0.60;78.06
63088;BME280;49173;43.164;27.786;2023-01-29T06:56:28;100922.72;;;0.62;78.75
63088;BME280;49173;43.164;27.786;2023-01-29T06:58:54;100928.88;;;0.65;78.24
63088;BME280;49173;43.164;27.786;2023-01-29T07:01:20;100929.72;;;0.69;78.55
63088;BME280;49173;43.164;27.786;2023-01-29T07:03:48;100940.28;;;0.73;78.07
63088;BME280;49173;43.164;27.786;2023-01-29T07:06:14;100944.66;;;0.76;77.73
63088;BME280;49173;43.164;27.786;2023-01-29T07:08:39;100940.22;;;0.81;77.22
63088;BME280;49173;43.164;27.786;2023-01-29T07:11:06;100943.72;;;0.85;76.73
63088;BME280;49173;43.164;27.786;2023-01-29T07:13:32;100940.19;;;0.89;76.15
63088;BME280;49173;43.164;27.786;2023-01-29T07:16:02;100950.78;;;0.86;76.97
63088;BME280;49173;43.164;27.786;2023-01-29T07:18:29;100956.88;;;0.91;76.69
63088;BME280;49173;43.164;27.786;2023-01-29T07:20:56;100953.38;;;0.93;75.65
63088;BME280;49173;43.164;27.786;2023-01-29T07:23:23;100959.53;;;0.91;76.52
63088;BME280;49173;43.164;27.786;2023-01-29T07:25:49;100957.78;;;0.93;76.32
63088;BME280;49173;43.164;27.786;2023-01-29T07:28:19;100958.66;;;0.93;75.95
63088;BME280;49173;43.164;27.786;2023-01-29T07:30:45;100968.34;;;0.90;75.95
63088;BME280;49173;43.164;27.786;2023-01-29T07:33:11;100971.00;;;0.90;76.72
63088;BME280;49173;43.164;27.786;2023-01-29T07:35:39;100962.19;;;0.89;76.07
63088;BME280;49173;43.164;27.786;2023-01-29T07:38:07;100968.34;;;0.91;77.22
63088;BME280;49173;43.164;27.786;2023-01-29T07:40:33;100975.38;;;0.91;77.64
63088;BME280;49173;43.164;27.786;2023-01-29T07:43:00;100967.44;;;0.97;76.96
63088;BME280;49173;43.164;27.786;2023-01-29T07:45:27;100982.41;;;0.99;77.06
63088;BME280;49173;43.164;27.786;2023-01-29T07:47:54;100976.22;;;1.02;76.90
63088;BME280;49173;43.164;27.786;2023-01-29T07:50:22;100978.81;;;1.05;76.19
63088;BME280;49173;43.164;27.786;2023-01-29T07:52:48;100980.66;;;1.00;76.98
63088;BME280;49173;43.164;27.786;2023-01-29T07:55:15;100985.00;;;1.04;77.04
63088;BME280;49173;43.164;27.786;2023-01-29T07:57:41;100985.88;;;1.09;75.87
63088;BME280;49173;43.164;27.786;2023-01-29T08:00:09;100974.41;;;1.08;76.30
63088;BME280;49173;43.164;27.786;2023-01-29T08:02:36;100988.50;;;1.14;76.50
63088;BME280;49173;43.164;27.786;2023-01-29T08:05:02;100982.34;;;1.08;75.92
63088;BME280;49173;43.164;27.786;2023-01-29T08:07:28;100987.59;;;1.15;75.78
63088;BME280;49173;43.164;27.786;2023-01-29T08:09:54;100990.22;;;1.18;75.58
63088;BME280;49173;43.164;27.786;2023-01-29T08:12:20;100986.66;;;1.23;74.58
63088;BME280;49173;43.164;27.786;2023-01-29T08:14:46;100987.59;;;1.15;74.46
63088;BME280;49173;43.164;27.786;2023-01-29T08:17:12;100996.41;;;1.15;74.56
63088;BME280;49173;43.164;27.786;2023-01-29T08:19:38;100984.06;;;1.14;73.89
63088;BME280;49173;43.164;27.786;2023-01-29T08:22:05;100998.22;;;1.07;74.84
63088;BME280;49173;43.164;27.786;2023-01-29T08:24:31;100991.19;;;1.03;75.66
63088;BME280;49173;43.164;27.786;2023-01-29T08:26:57;100987.66;;;1.04;76.39
63088;BME280;49173;43.164;27.786;2023-01-29T08:29:23;100991.16;;;1.04;75.60
63088;BME280;49173;43.164;27.786;2023-01-29T08:31:49;100986.78;;;1.03;76.36
63088;BME280;49173;43.164;27.786;2023-01-29T08:34:14;100978.84;;;1.03;76.71
63088;BME280;49173;43.164;27.786;2023-01-29T08:36:40;100984.09;;;1.05;76.35
63088;BME280;49173;43.164;27.786;2023-01-29T08:39:06;100993.84;;;1.01;76.96
63088;BME280;49173;43.164;27.786;2023-01-29T08:41:32;101005.31;;;0.99;77.16
63088;BME280;49173;43.164;27.786;2023-01-29T08:43:59;100999.16;;;0.95;78.09
63088;BME280;49173;43.164;27.786;2023-01-29T08:46:29;100997.34;;;1.02;78.48
63088;BME280;49173;43.164;27.786;2023-01-29T08:48:55;100995.56;;;1.05;78.82
63088;BME280;49173;43.164;27.786;2023-01-29T08:51:21;101004.34;;;1.12;78.61
63088;BME280;49173;43.164;27.786;2023-01-29T08:53:49;101011.38;;;1.16;77.21
63088;BME280;49173;43.164;27.786;2023-01-29T08:56:14;101005.22;;;1.13;77.62
63088;BME280;49173;43.164;27.786;2023-01-29T08:58:41;101006.13;;;1.10;78.29
63088;BME280;49173;43.164;27.786;2023-01-29T09:01:08;101005.19;;;1.17;77.96
63088;BME280;49173;43.164;27.786;2023-01-29T09:03:35;101006.06;;;1.22;77.59
63088;BME280;49173;43.164;27.786;2023-01-29T09:06:01;101005.22;;;1.16;77.55
63088;BME280;49173;43.164;27.786;2023-01-29T09:08:27;101011.38;;;1.15;78.18
63088;BME280;49173;43.164;27.786;2023-01-29T09:10:57;101013.13;;;1.13;77.81
63088;BME280;49173;43.164;27.786;2023-01-29T09:13:24;101006.94;;;1.20;77.13
63088;BME280;49173;43.164;27.786;2023-01-29T09:15:50;101007.84;;;1.17;77.72
63088;BME280;49173;43.164;27.786;2023-01-29T09:18:16;101013.13;;;1.17;77.39
63088;BME280;49173;43.164;27.786;2023-01-29T09:20:42;101006.09;;;1.15;77.20
63088;BME280;49173;43.164;27.786;2023-01-29T09:23:09;100996.41;;;1.14;77.34
63088;BME280;49173;43.164;27.786;2023-01-29T09:25:36;101009.59;;;1.18;77.80
63088;BME280;49173;43.164;27.786;2023-01-29T09:28:02;101010.47;;;1.17;77.81
63088;BME280;49173;43.164;27.786;2023-01-29T09:30:28;100998.13;;;1.19;77.99
63088;BME280;49173;43.164;27.786;2023-01-29T09:32:54;101002.53;;;1.22;78.05
63088;BME280;49173;43.164;27.786;2023-01-29T09:35:21;100999.81;;;1.29;78.01
63088;BME280;49173;43.164;27.786;2023-01-29T09:37:47;100983.09;;;1.29;78.14
63088;BME280;49173;43.164;27.786;2023-01-29T09:40:34;100991.84;;;1.35;78.33
63088;BME280;49173;43.164;27.786;2023-01-29T09:43:54;100994.47;;;1.42;78.10
63088;BME280;49173;43.164;27.786;2023-01-29T09:49:00;100979.34;;;1.57;77.14
63088;BME280;49173;43.164;27.786;2023-01-29T09:51:40;100989.91;;;1.59;76.74
63088;BME280;49173;43.164;27.786;2023-01-29T09:54:12;100988.94;;;1.71;76.80
63088;BME280;49173;43.164;27.786;2023-01-29T09:56:41;100987.16;;;1.71;75.04
63088;BME280;49173;43.164;27.786;2023-01-29T09:59:10;100987.16;;;1.68;75.01
63088;BME280;49173;43.164;27.786;2023-01-29T10:25:03;100968.53;;;1.80;73.22
63088;BME280;49173;43.164;27.786;2023-01-29T10:27:32;100965.03;;;1.80;73.54
63088;BME280;49173;43.164;27.786;2023-01-29T10:30:01;100966.00;;;1.71;74.68
63088;BME280;49173;43.164;27.786;2023-01-29T10:32:30;100966.00;;;1.71;73.42
63088;BME280;49173;43.164;27.786;2023-01-29T10:35:25;100968.72;;;1.63;74.28
63088;BME280;49173;43.164;27.786;2023-01-29T10:37:53;100965.19;;;1.63;75.17
63088;BME280;49173;43.164;27.786;2023-01-29T10:40:28;100972.22;;;1.64;75.21
63088;BME280;49173;43.164;27.786;2023-01-29T10:43:07;100971.34;;;1.65;75.35
63088;BME280;49173;43.164;27.786;2023-01-29T10:45:56;100961.66;;;1.62;75.21
63088;BME280;49173;43.164;27.786;2023-01-29T10:51:51;100950.19;;;1.60;75.25
63088;BME280;49173;43.164;27.786;2023-01-29T10:54:44;100957.16;;;1.69;75.44
63088;BME280;49173;43.164;27.786;2023-01-29T11:00:29;100947.38;;;1.80;74.96
63088;BME280;49173;43.164;27.786;2023-01-29T11:03:27;100943.84;;;1.80;74.84
63088;BME280;49173;43.164;27.786;2023-01-29T11:06:12;100948.28;;;1.78;74.58
63088;BME280;49173;43.164;27.786;2023-01-29T11:12:19;100949.25;;;1.71;70.41
63088;BME280;49173;43.164;27.786;2023-01-29T11:14:30;100959.94;;;1.54;71.35
63088;BME280;49173;43.164;27.786;2023-01-29T11:16:58;100947.72;;;1.42;71.76
63088;BME280;49173;43.164;27.786;2023-01-29T11:19:40;100942.44;;;1.44;71.76
63088;BME280;49173;43.164;27.786;2023-01-29T11:22:27;100946.91;;;1.32;72.65
63088;BME280;49173;43.164;27.786;2023-01-29T11:25:14;100942.50;;;1.31;72.00
63088;BME280;49173;43.164;27.786;2023-01-29T11:28:01;100941.66;;;1.29;72.71
63088;BME280;49173;43.164;27.786;2023-01-29T11:30:37;100936.38;;;1.29;73.77
63088;BME280;49173;43.164;27.786;2023-01-29T11:33:21;100938.94;;;1.38;74.29
63088;BME280;49173;43.164;27.786;2023-01-29T11:35:52;100933.56;;;1.46;74.24
63088;BME280;49173;43.164;27.786;2023-01-29T11:38:24;100945.91;;;1.50;73.26
63088;BME280;49173;43.164;27.786;2023-01-29T11:40:51;100932.59;;;1.55;72.65
63088;BME280;49173;43.164;27.786;2023-01-29T11:45:49;100941.50;;;1.48;72.30
63088;BME280;49173;43.164;27.786;2023-01-29T11:48:28;100944.16;;;1.45;71.91
63088;BME280;49173;43.164;27.786;2023-01-29T11:50:59;100938.84;;;1.48;72.40
63088;BME280;49173;43.164;27.786;2023-01-29T11:53:42;100938.75;;;1.60;72.49
63088;BME280;49173;43.164;27.786;2023-01-29T11:56:31;100935.22;;;1.59;71.59
63088;BME280;49173;43.164;27.786;2023-01-29T11:58:59;100940.56;;;1.53;71.97
63088;BME280;49173;43.164;27.786;2023-01-29T12:01:37;100941.44;;;1.57;71.70
63088;BME280;49173;43.164;27.786;2023-01-29T12:04:17;100932.56;;;1.61;71.53
63088;BME280;49173;43.164;27.786;2023-01-29T12:06:44;100926.38;;;1.63;71.30
63088;BME280;49173;43.164;27.786;2023-01-29T12:09:17;100945.72;;;1.69;71.17
63088;BME280;49173;43.164;27.786;2023-01-29T12:11:44;100925.50;;;1.60;70.90
63088;BME280;49173;43.164;27.786;2023-01-29T12:14:30;100928.19;;;1.58;71.73
63088;BME280;49173;43.164;27.786;2023-01-29T12:17:06;100921.97;;;1.64;71.90
63088;BME280;49173;43.164;27.786;2023-01-29T12:22:26;100924.63;;;1.61;72.91
63088;BME280;49173;43.164;27.786;2023-01-29T12:25:02;100929.84;;;1.70;72.79
63088;BME280;49173;43.164;27.786;2023-01-29T12:27:45;100926.31;;;1.70;71.95
63088;BME280;49173;43.164;27.786;2023-01-29T12:30:19;100924.56;;;1.70;72.75
63088;BME280;49173;43.164;27.786;2023-01-29T12:33:03;100918.38;;;1.71;72.54
63088;BME280;49173;43.164;27.786;2023-01-29T12:35:55;100921.84;;;1.76;72.55
63088;BME280;49173;43.164;27.786;2023-01-29T12:38:26;100920.91;;;1.80;72.30
63088;BME280;49173;43.164;27.786;2023-01-29T12:41:03;100920.09;;;1.77;70.61
63088;BME280;49173;43.164;27.786;2023-01-29T12:46:03;100922.84;;;1.63;71.96
63088;BME280;49173;43.164;27.786;2023-01-29T12:48:33;100920.19;;;1.64;70.99
63088;BME280;49173;43.164;27.786;2023-01-29T12:51:15;100929.91;;;1.62;71.38
63088;BME280;49173;43.164;27.786;2023-01-29T12:53:55;100941.28;;;1.72;72.87
63088;BME280;49173;43.164;27.786;2023-01-29T12:56:28;100930.69;;;1.74;72.13
63088;BME280;49173;43.164;27.786;2023-01-29T12:58:59;100921.84;;;1.76;71.73
63088;BME280;49173;43.164;27.786;2023-01-29T13:01:49;100935.06;;;1.75;71.61
63088;BME280;49173;43.164;27.786;2023-01-29T13:07:16;100932.44;;;1.73;70.99
63088;BME280;49173;43.164;27.786;2023-01-29T13:09:49;100933.44;;;1.61;71.68
63088;BME280;49173;43.164;27.786;2023-01-29T13:12:17;100944.03;;;1.60;70.96
63088;BME280;49173;43.164;27.786;2023-01-29T13:14:56;100950.28;;;1.53;71.02
63088;BME280;49173;43.164;27.786;2023-01-29T13:17:29;100945.06;;;1.41;71.60
63088;BME280;49173;43.164;27.786;2023-01-29T13:20:08;100951.19;;;1.47;71.89
63088;BME280;49173;43.164;27.786;2023-01-29T13:22:38;100947.69;;;1.48;73.00
63088;BME280;49173;43.164;27.786;2023-01-29T13:25:10;100957.31;;;1.55;72.81
63088;BME280;49173;43.164;27.786;2023-01-29T13:27:41;100953.78;;;1.55;73.57
63088;BME280;49173;43.164;27.786;2023-01-29T13:30:28;100959.00;;;1.61;73.63
63088;BME280;49173;43.164;27.786;2023-01-29T13:32:57;100953.72;;;1.61;73.69
63088;BME280;49173;43.164;27.786;2023-01-29T13:35:40;100958.13;;;1.63;73.49
63088;BME280;49173;43.164;27.786;2023-01-29T13:38:24;100958.09;;;1.67;72.62
63088;BME280;49173;43.164;27.786;2023-01-29T13:40:55;100964.31;;;1.62;72.06
63088;BME280;49173;43.164;27.786;2023-01-29T13:43:27;100969.63;;;1.59;73.35
63088;BME280;49173;43.164;27.786;2023-01-29T13:45:56;100972.16;;;1.69;74.03
63088;BME280;49173;43.164;27.786;2023-01-29T13:48:30;100962.44;;;1.72;73.28
63088;BME280;49173;43.164;27.786;2023-01-29T13:51:03;100972.13;;;1.73;71.17
63088;BME280;49173;43.164;27.786;2023-01-29T13:53:41;100964.19;;;1.73;72.04
63088;BME280;49173;43.164;27.786;2023-01-29T13:56:27;100969.44;;;1.79;72.13
63088;BME280;49173;43.164;27.786;2023-01-29T13:58:56;100959.78;;;1.74;71.39
63088;BME280;49173;43.164;27.786;2023-01-29T14:04:30;100965.00;;;1.81;72.02
63088;BME280;49173;43.164;27.786;2023-01-29T14:07:00;100972.88;;;1.87;72.13
63088;BME280;49173;43.164;27.786;2023-01-29T14:17:20;100978.16;;;1.90;70.06
63088;BME280;49173;43.164;27.786;2023-01-29T14:19:58;100973.75;;;1.89;68.95
63088;BME280;49173;43.164;27.786;2023-01-29T14:22:30;100972.00;;;1.88;69.40
63088;BME280;49173;43.164;27.786;2023-01-29T14:25:00;100979.94;;;1.88;68.98
63088;BME280;49173;43.164;27.786;2023-01-29T14:27:29;100972.91;;;1.86;69.39
63088;BME280;49173;43.164;27.786;2023-01-29T14:30:05;100972.94;;;1.81;69.19
63088;BME280;49173;43.164;27.786;2023-01-29T14:32:33;100974.72;;;1.79;69.28
63088;BME280;49173;43.164;27.786;2023-01-29T14:35:29;100980.00;;;1.84;70.03
63088;BME280;49173;43.164;27.786;2023-01-29T14:38:04;100979.97;;;1.85;69.47
63088;BME280;49173;43.164;27.786;2023-01-29T14:40:32;100983.47;;;1.87;69.15
63088;BME280;49173;43.164;27.786;2023-01-29T14:43:17;100986.06;;;1.93;68.94
63088;BME280;49173;43.164;27.786;2023-01-29T14:45:47;100983.44;;;1.92;68.81
63088;BME280;49173;43.164;27.786;2023-01-29T14:48:37;100985.22;;;1.91;68.47
63088;BME280;49173;43.164;27.786;2023-01-29T14:51:15;100992.34;;;1.83;68.51
63088;BME280;49173;43.164;27.786;2023-01-29T14:57:00;100986.16;;;1.83;69.93
63088;BME280;49173;43.164;27.786;2023-01-29T15:01:59;100987.84;;;1.90;69.34
63088;BME280;49173;43.164;27.786;2023-01-29T15:04:40;100979.03;;;1.91;69.27
63088;BME280;49173;43.164;27.786;2023-01-29T15:09:59;101000.19;;;1.92;69.66